Time;durP1;ratioP1;P1;durP2;ratioP2;P2;SDS_P1;SDS_P2;PMS_P1;PMS_P2;Temp;Humidity;BMP_temperature;BMP_pressure;BME280_temperature;BME280_humidity;BME280_pressure;Samples;Min_cycle;Max_cycle;Signal;HPM_P1;HPM_P2
2021/04/26 00:02:06;;;;;;;15.20;8.28;;;;;;;4.55;69.33;100249.56;1693310;84;21402;-82
2021/04/26 00:05:13;;;;;;;16.00;7.70;;;;;;;4.55;69.55;100249.56;1694837;84;21302;-84
2021/04/26 00:08:19;;;;;;;12.58;6.75;;;;;;;4.55;69.65;100250.92;1694878;84;21362;-83
2021/04/26 00:11:25;;;;;;;12.75;7.35;;;;;;;4.56;68.95;100252.16;1693407;84;21212;-83
2021/04/26 00:14:32;;;;;;;12.95;6.90;;;;;;;4.59;68.39;100252.36;1668487;84;21200;-83
2021/04/26 00:17:39;;;;;;;10.32;6.85;;;;;;;4.61;68.85;100258.02;1690691;84;21323;-83
2021/04/26 00:20:44;;;;;;;13.50;8.08;;;;;;;4.61;68.62;100253.06;1694897;84;21343;-83
2021/04/26 00:23:51;;;;;;;9.90;6.78;;;;;;;4.61;68.16;100251.70;1655392;84;21330;-84
2021/04/26 00:26:57;;;;;;;15.72;7.75;;;;;;;4.61;68.80;100251.23;1694907;84;21318;-83
2021/04/26 00:30:04;;;;;;;14.30;7.35;;;;;;;4.59;68.87;100243.73;1693959;84;21193;-83
2021/04/26 00:33:11;;;;;;;14.45;8.03;;;;;;;4.56;69.26;100242.67;1693717;84;21302;-83
2021/04/26 00:36:17;;;;;;;19.75;8.43;;;;;;;4.53;69.20;100239.38;1694813;84;21330;-83
2021/04/26 00:39:23;;;;;;;17.65;7.70;;;;;;;4.50;69.25;100238.30;1694697;84;21192;-83
2021/04/26 00:42:29;;;;;;;13.75;7.90;;;;;;;4.47;69.28;100238.56;1694583;84;21390;-83
2021/04/26 00:45:34;;;;;;;17.90;7.70;;;;;;;4.45;69.36;100231.08;1694784;84;21315;-84
2021/04/26 00:48:40;;;;;;;16.97;8.78;;;;;;;4.41;69.47;100227.79;1694888;84;21864;-84
2021/04/26 00:51:46;;;;;;;20.70;8.60;;;;;;;4.35;69.52;100221.59;1694697;84;21366;-84
2021/04/26 00:54:52;;;;;;;17.62;8.58;;;;;;;4.28;69.61;100218.59;1694978;84;21710;-84
2021/04/26 00:57:58;;;;;;;13.70;7.83;;;;;;;4.23;69.61;100215.41;1694721;84;21351;-84
2021/04/26 01:01:03;;;;;;;13.95;8.33;;;;;;;4.18;69.82;100217.67;1693662;84;21354;-83
2021/04/26 01:04:10;;;;;;;14.38;7.58;;;;;;;4.10;70.03;100213.47;1711231;84;21336;-83
2021/04/26 01:07:16;;;;;;;17.48;9.33;;;;;;;4.01;70.24;100210.23;1711326;84;21325;-84
2021/04/26 01:10:24;;;;;;;17.62;8.70;;;;;;;3.93;70.59;100201.92;1711461;84;21855;-83
2021/04/26 01:14:07;;;;;;;16.05;8.60;;;;;;;3.91;70.68;100202.08;1707193;84;21304;-84
2021/04/26 01:17:17;;;;;;;16.48;9.25;;;;;;;3.93;70.86;100199.22;1711453;84;21325;-83
2021/04/26 01:20:39;;;;;;;17.70;8.80;;;;;;;3.91;70.99;100197.16;1711483;84;21316;-84
2021/04/26 01:24:14;;;;;;;19.82;9.80;;;;;;;3.86;71.08;100198.92;1710367;84;21242;-83
2021/04/26 01:27:35;;;;;;;19.77;8.30;;;;;;;3.80;71.17;100192.17;1670389;84;21344;-83
2021/04/26 01:31:08;;;;;;;25.68;11.85;;;;;;;3.73;71.50;100195.58;1703861;84;21321;-83
2021/04/26 01:34:13;;;;;;;40.73;18.25;;;;;;;3.70;71.87;100199.89;1707154;84;21784;-83
2021/04/26 01:37:24;;;;;;;35.75;14.30;;;;;;;3.76;72.01;100195.29;1695603;84;21308;-83
2021/04/26 01:40:30;;;;;;;52.17;25.52;;;;;;;3.84;71.95;100192.27;1711587;84;21732;-83
2021/04/26 01:43:36;;;;;;;70.45;31.77;;;;;;;3.94;71.80;100188.25;1711362;84;21241;-83
2021/04/26 01:46:43;;;;;;;71.72;34.05;;;;;;;4.01;71.59;100177.75;1711327;84;21301;-83
2021/04/26 01:49:48;;;;;;;39.58;20.68;;;;;;;4.08;71.49;100176.19;1711425;84;21335;-83
2021/04/26 01:52:56;;;;;;;69.90;35.00;;;;;;;4.13;71.42;100173.06;1690449;84;21313;-83
2021/04/26 01:56:05;;;;;;;55.73;30.05;;;;;;;4.17;71.42;100171.80;1711582;84;21824;-83
2021/04/26 01:59:13;;;;;;;101.82;55.60;;;;;;;4.20;71.42;100169.68;1711447;84;21838;-83
2021/04/26 02:02:20;;;;;;;157.10;73.80;;;;;;;4.24;71.48;100170.27;1690460;81;21314;-82
2021/04/26 02:05:25;;;;;;;118.17;55.38;;;;;;;4.28;71.53;100173.02;1707516;84;21255;-83
2021/04/26 02:08:33;;;;;;;111.20;54.93;;;;;;;4.30;71.62;100167.84;1689810;84;21328;-83
2021/04/26 02:11:38;;;;;;;71.45;33.08;;;;;;;4.35;71.61;100164.22;1707533;84;21895;-83
2021/04/26 02:14:49;;;;;;;88.52;42.55;;;;;;;4.39;71.50;100166.16;1707468;84;21744;-83
2021/04/26 02:17:55;;;;;;;37.63;17.73;;;;;;;4.41;71.47;100166.00;1707474;84;21282;-84
2021/04/26 02:21:01;;;;;;;20.20;11.73;;;;;;;4.43;71.49;100165.38;1707520;84;21736;-83
2021/04/26 02:24:07;;;;;;;24.87;11.30;;;;;;;4.39;71.20;100161.23;1707313;84;21333;-83
2021/04/26 02:27:12;;;;;;;23.83;12.15;;;;;;;4.29;71.08;100162.58;1707433;84;21321;-83
2021/04/26 02:30:20;;;;;;;34.10;11.70;;;;;;;4.17;71.42;100154.20;1707484;84;21214;-83
2021/04/26 02:33:30;;;;;;;23.47;12.40;;;;;;;4.08;71.97;100160.80;1707121;84;21210;-83
2021/04/26 02:36:43;;;;;;;34.20;15.98;;;;;;;4.03;72.30;100160.36;1707399;84;21293;-83
2021/04/26 02:39:52;;;;;;;40.60;21.25;;;;;;;4.02;72.43;100159.16;1707444;84;21286;-83
2021/04/26 02:42:59;;;;;;;52.25;24.40;;;;;;;4.02;72.63;100157.80;1691077;84;21891;-83
2021/04/26 02:46:06;;;;;;;51.18;29.92;;;;;;;4.03;72.92;100150.89;1707470;84;21903;-83
2021/04/26 02:49:15;;;;;;;62.38;33.78;;;;;;;4.13;73.18;100156.83;1705990;84;21701;-83
2021/04/26 02:52:22;;;;;;;73.37;36.95;;;;;;;4.27;73.20;100151.86;1707233;84;21884;-83
2021/04/26 02:55:28;;;;;;;44.30;25.95;;;;;;;4.46;73.23;100147.47;1686387;84;21289;-83
2021/04/26 02:58:35;;;;;;;43.08;23.10;;;;;;;4.73;72.90;100146.78;1707379;84;21341;-83
2021/04/26 03:01:43;;;;;;;62.35;28.70;;;;;;;5.00;72.21;100138.78;1690676;84;21210;-83
2021/04/26 03:05:09;;;;;;;46.63;24.10;;;;;;;5.21;71.46;100145.36;1721497;83;21356;-83
2021/04/26 03:08:17;;;;;;;39.20;19.10;;;;;;;5.35;70.69;100134.05;1726624;83;21197;-83
2021/04/26 03:11:23;;;;;;;47.85;23.47;;;;;;;5.48;70.37;100133.73;1706842;83;21288;-83
2021/04/26 03:14:29;;;;;;;44.18;19.62;;;;;;;5.60;70.10;100135.78;1726829;83;21336;-83
2021/04/26 03:17:35;;;;;;;36.28;18.70;;;;;;;5.67;69.80;100133.31;1706322;83;21295;-84
2021/04/26 03:20:41;;;;;;;49.30;24.95;;;;;;;5.72;69.88;100133.72;1726905;83;21343;-83
2021/04/26 03:23:48;;;;;;;44.93;22.17;;;;;;;5.75;69.57;100132.92;1726956;83;21353;-83
2021/04/26 03:26:56;;;;;;;44.80;23.00;;;;;;;5.74;69.40;100131.70;1706644;83;21308;-83
2021/04/26 03:30:01;;;;;;;81.63;42.75;;;;;;;5.73;69.34;100133.56;1701439;83;21854;-83
2021/04/26 03:33:08;;;;;;;68.52;36.48;;;;;;;5.73;69.19;100130.84;1726762;83;21190;-83
2021/04/26 03:36:14;;;;;;;53.85;28.62;;;;;;;5.69;69.30;100129.44;1726887;83;21178;-83
2021/04/26 03:39:20;;;;;;;55.03;27.10;;;;;;;5.77;69.60;100139.55;1726877;83;21300;-83
2021/04/26 03:42:28;;;;;;;58.00;30.12;;;;;;;5.94;69.98;100132.52;1727038;83;21367;-83
2021/04/26 03:45:35;;;;;;;56.42;27.85;;;;;;;6.16;69.91;100123.94;1726825;83;21885;-83
2021/04/26 03:48:59;;;;;;;56.60;28.50;;;;;;;6.39;70.43;100125.72;1726186;83;21295;-83
2021/04/26 03:52:14;;;;;;;49.27;26.15;;;;;;;6.69;70.41;100127.73;1724514;83;21221;-83
2021/04/26 03:55:28;;;;;;;49.53;24.87;;;;;;;7.03;70.44;100127.84;1726614;83;21213;-83
2021/04/26 03:58:37;;;;;;;45.33;22.75;;;;;;;7.35;70.32;100127.23;1726852;83;21314;-83
2021/04/26 04:01:42;;;;;;;38.50;21.55;;;;;;;7.63;69.84;100127.40;1725953;83;21284;-83
2021/04/26 04:04:49;;;;;;;37.48;19.40;;;;;;;7.95;69.28;100127.19;1720549;81;21934;-83
2021/04/26 04:08:02;;;;;;;34.18;18.73;;;;;;;8.27;68.33;100129.19;1675153;84;21824;-83
2021/04/26 04:11:26;;;;;;;27.98;15.53;;;;;;;8.52;67.28;100119.76;1707421;84;21171;-84
2021/04/26 04:14:45;;;;;;;26.40;14.05;;;;;;;8.71;66.48;100127.63;1664257;84;21345;-83
2021/04/26 04:17:53;;;;;;;32.15;15.55;;;;;;;8.87;65.79;100124.05;1686112;84;21294;-84
2021/04/26 04:21:00;;;;;;;27.60;13.00;;;;;;;8.98;65.53;100121.48;1707548;84;21750;-84
2021/04/26 04:24:06;;;;;;;33.20;14.18;;;;;;;9.02;65.05;100113.30;1690335;84;21328;-83
2021/04/26 04:27:13;;;;;;;32.33;15.08;;;;;;;9.04;64.91;100107.18;1707200;84;21771;-84
2021/04/26 04:30:21;;;;;;;32.98;14.93;;;;;;;9.04;64.65;100105.30;1686273;84;21724;-84
2021/04/26 04:33:31;;;;;;;29.05;14.98;;;;;;;9.07;65.17;100105.45;1706789;84;21447;-84
2021/04/26 04:36:56;;;;;;;26.93;16.05;;;;;;;9.12;65.40;100104.42;1636828;87;21306;-84
2021/04/26 04:40:20;;;;;;;35.15;16.67;;;;;;;9.24;66.56;100100.33;1636555;87;21884;-84
2021/04/26 04:43:27;;;;;;;24.77;14.75;;;;;;;9.36;66.92;100098.95;1707377;84;21321;-84
2021/04/26 04:46:34;;;;;;;30.30;16.52;;;;;;;9.51;67.07;100098.23;1707374;84;21182;-85
2021/04/26 04:49:42;;;;;;;33.95;15.80;;;;;;;9.67;67.17;100094.08;1707141;84;21877;-84
2021/04/26 04:52:49;;;;;;;33.38;16.80;;;;;;;9.90;66.94;100087.34;1707675;83;21832;-84
2021/04/26 04:55:55;;;;;;;26.27;14.53;;;;;;;10.14;67.27;100086.37;1717230;83;21215;-84
2021/04/26 04:59:04;;;;;;;26.27;14.58;;;;;;;10.38;66.52;100084.88;1713102;83;21169;-84
2021/04/26 05:02:11;;;;;;;27.30;13.88;;;;;;;10.58;65.35;100085.77;1702364;83;21277;-84
2021/04/26 05:05:35;;;;;;;29.05;14.23;;;;;;;10.77;64.50;100088.02;1718943;82;21834;-84
2021/04/26 05:09:00;;;;;;;24.57;13.88;;;;;;;10.90;63.92;100077.31;1712569;83;21528;-84
2021/04/26 05:12:22;;;;;;;36.50;14.63;;;;;;;11.13;63.52;100078.66;1700111;83;21480;-84
2021/04/26 05:15:47;;;;;;;27.32;13.95;;;;;;;11.27;63.25;100079.72;1698711;83;21307;-84
2021/04/26 05:18:53;;;;;;;31.25;13.80;;;;;;;11.35;62.68;100074.17;1695924;84;21335;-84
2021/04/26 05:22:01;;;;;;;32.23;15.18;;;;;;;11.44;61.66;100074.41;1677227;84;21273;-84
2021/04/26 05:25:12;;;;;;;36.65;16.05;;;;;;;11.46;59.21;100072.33;1658211;85;21293;-83
2021/04/26 05:28:17;;;;;;;29.87;13.45;;;;;;;11.48;58.65;100068.90;1682934;83;21214;-84
2021/04/26 05:31:25;;;;;;;35.48;15.10;;;;;;;11.57;58.78;100068.26;1699167;83;21247;-84
2021/04/26 05:34:30;;;;;;;29.67;13.32;;;;;;;11.72;59.08;100062.80;1675148;84;21315;-84
2021/04/26 05:37:36;;;;;;;38.48;17.20;;;;;;;11.89;60.16;100058.83;1657820;86;21821;-85
2021/04/26 05:40:47;;;;;;;35.75;15.30;;;;;;;12.02;58.82;100055.42;1656264;85;21213;-84
2021/04/26 05:43:53;;;;;;;46.45;16.93;;;;;;;12.11;57.14;100055.64;1687130;84;21197;-84
2021/04/26 05:47:01;;;;;;;34.23;14.58;;;;;;;12.20;56.58;100056.38;1685350;84;21892;-85
2021/04/26 05:50:06;;;;;;;25.00;10.72;;;;;;;12.30;55.39;100054.17;1675933;84;21283;-84
2021/04/26 05:53:12;;;;;;;16.77;9.15;;;;;;;12.41;53.55;100053.66;1696419;83;21217;-85
2021/04/26 05:56:18;;;;;;;12.13;6.62;;;;;;;12.52;53.94;100056.42;1697091;84;21761;-85
2021/04/26 05:59:23;;;;;;;14.05;6.97;;;;;;;12.61;52.15;100053.00;1697531;84;21364;-84
2021/04/26 06:02:29;;;;;;;13.65;6.45;;;;;;;12.69;52.06;100042.75;1647025;85;21723;-84
2021/04/26 06:05:36;;;;;;;11.90;5.33;;;;;;;12.79;51.28;100041.89;1651685;85;21225;-84
2021/04/26 06:08:45;;;;;;;13.40;5.80;;;;;;;12.89;48.93;100040.22;1653100;84;21342;-85
2021/04/26 06:11:51;;;;;;;17.42;6.70;;;;;;;12.98;48.53;100037.63;1694964;83;22045;-85
2021/04/26 06:14:58;;;;;;;14.55;7.05;;;;;;;13.05;48.44;100035.80;1663522;84;21389;-84
2021/04/26 06:18:25;;;;;;;14.98;6.83;;;;;;;13.18;49.35;100043.82;1689629;83;21324;-85
2021/04/26 06:21:31;;;;;;;10.82;5.17;;;;;;;13.34;48.87;100036.67;1692062;83;21878;-85
2021/04/26 06:24:37;;;;;;;14.28;5.17;;;;;;;13.58;44.98;100038.61;1665754;84;21255;-84
2021/04/26 06:27:43;;;;;;;11.08;5.42;;;;;;;13.78;42.88;100036.31;1690119;83;21341;-85
2021/04/26 06:30:50;;;;;;;12.78;5.70;;;;;;;13.80;42.24;100040.22;1690109;83;21206;-85
2021/04/26 06:33:57;;;;;;;23.38;9.58;;;;;;;13.80;41.67;100035.57;1693627;83;21305;-83
2021/04/26 06:37:03;;;;;;;20.68;7.60;;;;;;;13.83;41.22;100034.83;1692495;83;21304;-83
2021/04/26 06:40:10;;;;;;;11.70;5.37;;;;;;;13.88;41.47;100034.56;1692670;83;21323;-83
2021/04/26 06:43:16;;;;;;;15.05;5.65;;;;;;;13.85;40.17;100021.22;1690759;83;21323;-83
2021/04/26 06:46:22;;;;;;;11.05;4.75;;;;;;;13.69;41.33;100022.91;1691793;83;21298;-83
2021/04/26 06:49:31;;;;;;;12.58;4.67;;;;;;;13.72;41.36;100020.61;1693501;83;21283;-85
2021/04/26 06:52:36;;;;;;;13.08;5.10;;;;;;;13.87;40.80;100013.59;1675295;83;21703;-85
2021/04/26 06:55:42;;;;;;;11.28;4.53;;;;;;;13.97;40.76;100014.09;1694770;83;21294;-85
2021/04/26 06:58:47;;;;;;;14.83;5.22;;;;;;;14.06;41.37;100014.20;1661216;84;21701;-85
2021/04/26 07:01:53;;;;;;;12.30;5.00;;;;;;;14.10;41.64;100009.67;1669383;84;21366;-84
2021/04/26 07:05:04;;;;;;;10.40;4.30;;;;;;;14.16;41.76;100006.95;1669364;84;21307;-85
2021/04/26 07:08:10;;;;;;;8.18;3.33;;;;;;;14.24;40.77;100007.28;1659495;85;21332;-85
2021/04/26 07:11:17;;;;;;;12.05;4.03;;;;;;;14.26;41.27;100008.78;1721927;81;21161;-85
2021/04/26 07:14:25;;;;;;;11.25;4.30;;;;;;;14.29;42.93;100005.59;1727964;81;21319;-84
2021/04/26 07:17:30;;;;;;;11.18;4.20;;;;;;;14.37;42.88;100010.06;1717373;81;21330;-85
2021/04/26 07:20:39;;;;;;;11.97;4.45;;;;;;;14.47;44.05;100013.78;1719732;81;21307;-85
2021/04/26 07:23:47;;;;;;;9.63;3.92;;;;;;;14.62;43.30;100012.25;1722118;81;21180;-83
2021/04/26 07:26:53;;;;;;;7.67;4.42;;;;;;;14.78;42.55;100005.82;1718476;81;21196;-85
2021/04/26 07:29:59;;;;;;;9.70;4.05;;;;;;;14.94;42.38;100003.16;1720527;81;21176;-85
2021/04/26 07:33:06;;;;;;;8.35;3.75;;;;;;;15.04;42.68;100009.09;1719333;83;21341;-85
2021/04/26 07:36:12;;;;;;;9.48;4.12;;;;;;;15.19;43.39;100002.50;1720386;81;21283;-86
2021/04/26 07:39:19;;;;;;;11.85;3.40;;;;;;;15.34;42.20;100008.66;1718857;81;21216;-85
2021/04/26 07:42:24;;;;;;;9.98;3.80;;;;;;;15.28;42.69;99997.93;1736352;81;21296;-86
2021/04/26 07:45:29;;;;;;;7.00;3.60;;;;;;;15.23;42.22;99992.75;1723960;81;21972;-85
2021/04/26 07:48:34;;;;;;;5.62;2.95;;;;;;;15.21;42.90;99995.73;1721844;81;21164;-86
2021/04/26 07:51:41;;;;;;;6.30;2.98;;;;;;;15.39;42.48;99990.94;1720256;81;21362;-85
2021/04/26 07:54:47;;;;;;;7.50;2.80;;;;;;;15.47;41.29;99991.22;1718624;81;21343;-85
2021/04/26 07:57:55;;;;;;;8.50;4.12;;;;;;;15.54;41.89;99989.30;1720066;82;21152;-85
2021/04/26 08:01:00;;;;;;;10.55;4.65;;;;;;;15.49;40.98;99985.82;1724237;81;22048;-83
2021/04/26 08:04:06;;;;;;;29.32;13.00;;;;;;;15.36;40.95;99989.14;1719887;81;21290;-83
2021/04/26 08:07:13;;;;;;;22.93;9.70;;;;;;;15.05;39.96;99977.72;1702562;83;21271;-82
2021/04/26 08:10:19;;;;;;;6.92;4.10;;;;;;;14.68;40.66;99976.99;1710560;81;21184;-82
2021/04/26 08:13:19;;;;;;;10.38;3.40;;;;;;;14.51;41.52;99974.66;1710127;82;21326;-82
2021/04/26 08:16:13;;;;;;;6.50;3.42;;;;;;;14.48;42.92;99959.94;1711044;82;21821;-86
2021/04/26 08:19:20;;;;;;;15.78;7.15;;;;;;;14.56;42.50;99965.78;1709049;82;21295;-85
2021/04/26 08:22:26;;;;;;;12.65;5.17;;;;;;;14.59;41.64;99968.66;1712793;82;21518;-82
2021/04/26 08:25:33;;;;;;;14.30;3.75;;;;;;;14.55;41.53;99969.06;1706365;82;21306;-84
2021/04/26 08:28:42;;;;;;;10.65;3.80;;;;;;;14.70;41.71;99959.22;1707140;82;21176;-85
2021/04/26 08:31:48;;;;;;;9.98;3.33;;;;;;;14.94;42.56;99962.39;1713266;82;21217;-85
2021/04/26 08:34:54;;;;;;;12.75;4.15;;;;;;;15.27;42.24;99961.80;1704344;82;21264;-86
2021/04/26 08:38:02;;;;;;;6.95;3.58;;;;;;;15.52;41.90;99950.91;1712167;82;21211;-85
2021/04/26 08:41:12;;;;;;;6.75;2.95;;;;;;;15.55;40.82;99955.16;1710449;82;21287;-85
2021/04/26 08:44:17;;;;;;;15.85;3.35;;;;;;;15.49;41.18;99954.66;1709044;82;21302;-82
2021/04/26 08:47:25;;;;;;;9.73;3.60;;;;;;;15.41;41.92;99948.84;1713650;82;21277;-83
2021/04/26 08:50:33;;;;;;;4.60;3.05;;;;;;;15.39;41.42;99952.36;1707683;82;21326;-84
2021/04/26 08:53:38;;;;;;;7.10;2.80;;;;;;;15.20;40.71;99957.39;1720900;82;21306;-84
2021/04/26 08:56:45;;;;;;;6.28;3.20;;;;;;;14.96;41.35;99947.86;1704214;82;21275;-85
2021/04/26 08:59:52;;;;;;;5.58;2.70;;;;;;;14.72;42.50;99947.98;1716355;82;21300;-85
2021/04/26 09:03:07;;;;;;;5.33;2.47;;;;;;;14.53;42.66;99957.41;1728101;82;21327;-83
2021/04/26 09:06:17;;;;;;;5.00;2.85;;;;;;;14.33;42.62;99948.26;1712658;82;21804;-83
2021/04/26 09:09:26;;;;;;;7.87;2.85;;;;;;;14.21;43.58;99955.42;1713594;82;21327;-84
2021/04/26 09:12:36;;;;;;;18.23;4.40;;;;;;;14.09;43.18;99951.07;1702345;82;21837;-85
2021/04/26 09:15:46;;;;;;;11.12;3.52;;;;;;;13.92;43.69;99956.09;1660056;85;21385;-82
2021/04/26 09:19:10;;;;;;;6.60;3.25;;;;;;;13.83;44.77;99951.83;1659421;86;22281;-85
2021/04/26 09:22:15;;;;;;;7.97;3.08;;;;;;;13.66;43.03;99953.27;1678286;83;21306;-84
2021/04/26 09:25:41;;;;;;;6.65;3.60;;;;;;;13.39;43.85;99946.25;1702003;83;21335;-82
2021/04/26 09:28:51;;;;;;;4.85;2.90;;;;;;;13.25;44.50;99938.99;1651478;84;21307;-82
2021/04/26 09:32:26;;;;;;;8.98;3.45;;;;;;;13.21;45.02;99933.55;1721977;82;21822;-84
2021/04/26 09:35:50;;;;;;;8.53;3.00;;;;;;;13.20;45.16;99931.33;1726804;81;21174;-85
2021/04/26 09:39:03;;;;;;;8.13;2.92;;;;;;;13.24;45.22;99934.03;1724320;83;21810;-84
2021/04/26 09:42:08;;;;;;;12.13;3.72;;;;;;;13.27;45.45;99927.30;1652043;86;21690;-84
2021/04/26 09:45:40;;;;;;;5.95;3.25;;;;;;;13.24;45.35;99929.91;1725996;83;21276;-84
2021/04/26 09:48:51;;;;;;;6.47;3.00;;;;;;;13.17;45.35;99928.98;1693284;84;21326;-82
2021/04/26 09:52:00;;;;;;;8.83;3.30;;;;;;;13.04;45.90;99918.79;1674228;84;21318;-82
2021/04/26 09:55:07;;;;;;;7.78;3.83;;;;;;;12.98;46.20;99918.20;1696641;84;21294;-82
2021/04/26 09:58:13;;;;;;;15.40;5.10;;;;;;;12.92;47.85;99914.89;1724649;81;21217;-85
2021/04/26 10:01:17;;;;;;;15.58;4.50;;;;;;;12.86;48.23;99917.61;1724810;81;21196;-84
2021/04/26 10:04:23;;;;;;;8.18;4.03;;;;;;;12.86;48.49;99910.75;1725058;81;21324;-82
2021/04/26 10:07:31;;;;;;;8.78;4.60;;;;;;;12.85;48.61;99912.65;1747725;81;21654;-82
2021/04/26 10:10:38;;;;;;;9.15;5.17;;;;;;;12.87;48.54;99921.52;1723635;82;21887;-82
2021/04/26 10:13:47;;;;;;;16.73;4.42;;;;;;;12.89;47.33;99918.56;1703451;83;21236;-82
2021/04/26 10:17:00;;;;;;;5.08;3.20;;;;;;;12.92;47.39;99912.16;1717742;81;21168;-82
2021/04/26 10:20:08;;;;;;;6.95;3.15;;;;;;;12.94;46.68;99917.46;1714357;83;21172;-84
2021/04/26 10:23:44;;;;;;;3.77;2.62;;;;;;;12.88;46.38;99920.46;1714519;83;22301;-82
2021/04/26 10:27:01;;;;;;;10.95;2.70;;;;;;;12.86;46.13;99918.45;1737011;82;21270;-83
2021/04/26 10:30:11;;;;;;;3.95;2.00;;;;;;;12.82;45.84;99924.02;1718373;81;21327;-84
2021/04/26 10:33:18;;;;;;;9.40;2.40;;;;;;;12.86;45.58;99918.45;1700076;83;21283;-82
2021/04/26 10:36:53;;;;;;;4.08;2.35;;;;;;;12.94;45.54;99921.05;1702191;83;21263;-84
2021/04/26 10:40:08;;;;;;;3.75;2.35;;;;;;;12.95;44.10;99927.39;1719105;83;21276;-84
2021/04/26 10:43:17;;;;;;;4.50;2.30;;;;;;;12.88;44.45;99926.48;1714423;83;21350;-83
2021/04/26 10:46:26;;;;;;;3.45;2.42;;;;;;;12.76;44.23;99932.53;1719699;81;21840;-84
2021/04/26 10:49:33;;;;;;;6.72;2.50;;;;;;;12.68;45.02;99929.08;1700782;81;21176;-81
2021/04/26 10:52:42;;;;;;;8.33;2.17;;;;;;;12.65;45.33;99922.08;1716884;83;21188;-83
2021/04/26 10:55:52;;;;;;;6.17;2.47;;;;;;;12.64;45.06;99933.27;1715469;83;21168;-83
2021/04/26 10:58:58;;;;;;;4.37;2.17;;;;;;;12.54;44.37;99931.71;1726881;82;21212;-82
2021/04/26 11:02:04;;;;;;;5.20;2.02;;;;;;;12.42;45.37;99932.44;1723324;82;21174;-81
2021/04/26 11:05:34;;;;;;;4.83;2.70;;;;;;;12.34;46.62;99943.57;1733656;81;21198;-81
2021/04/26 11:11:58;;;;;;;3.95;2.47;;;;;;;12.02;49.77;99952.10;1733838;81;21387;-81
2021/04/26 11:14:58;;;;;;;6.62;2.40;;;;;;;11.81;51.31;99953.42;1728201;82;21497;-84
2021/04/26 11:18:04;;;;;;;8.85;2.77;;;;;;;11.71;52.95;99955.59;1724300;82;21315;-84
2021/04/26 11:21:09;;;;;;;5.10;2.77;;;;;;;11.72;54.61;99966.39;1723529;82;21336;-81
2021/04/26 11:24:16;;;;;;;7.55;3.65;;;;;;;11.76;57.02;99969.08;1726317;82;21170;-84
2021/04/26 11:27:27;;;;;;;5.58;3.05;;;;;;;11.73;58.31;99963.97;1728096;82;21323;-84
2021/04/26 11:30:36;;;;;;;5.30;2.55;;;;;;;11.67;58.83;99959.80;1726638;82;21276;-81
2021/04/26 11:33:40;;;;;;;4.47;2.65;;;;;;;11.63;60.14;99961.21;1728046;82;21288;-81
2021/04/26 11:36:46;;;;;;;6.47;2.33;;;;;;;11.51;60.93;99959.47;1728127;82;21260;-81
2021/04/26 11:39:55;;;;;;;5.65;3.00;;;;;;;11.36;61.91;99964.96;1736898;82;21273;-80
2021/04/26 11:43:12;;;;;;;4.80;3.20;;;;;;;11.09;61.32;99960.98;1725693;82;21176;-80
2021/04/26 11:46:17;;;;;;;6.15;3.08;;;;;;;10.73;63.42;99966.34;1730752;82;21273;-81
2021/04/26 11:49:28;;;;;;;4.55;3.05;;;;;;;10.39;65.51;99962.17;1727559;82;21166;-82
2021/04/26 11:52:40;;;;;;;8.03;2.77;;;;;;;10.26;67.73;99964.70;1729820;82;21312;-81
2021/04/26 11:55:43;;;;;;;6.70;2.87;;;;;;;10.25;67.96;99964.34;1729469;82;21281;-82
2021/04/26 11:58:50;;;;;;;5.65;3.00;;;;;;;10.22;67.43;99953.77;1731511;82;21221;-80
2021/04/26 12:01:58;;;;;;;6.17;2.87;;;;;;;10.16;67.34;99946.27;1732215;82;21323;-83
2021/04/26 12:05:09;;;;;;;6.22;2.83;;;;;;;10.07;66.85;99943.27;1728011;82;21719;-83
2021/04/26 12:08:13;;;;;;;5.53;3.30;;;;;;;10.00;67.28;99933.59;1728452;82;21324;-81
2021/04/26 12:11:28;;;;;;;4.40;2.85;;;;;;;9.99;67.27;99927.28;1726020;81;21324;-81
2021/04/26 12:14:33;;;;;;;4.35;2.55;;;;;;;10.08;67.71;99913.05;1721102;81;21306;-84
2021/04/26 12:17:41;;;;;;;3.87;3.00;;;;;;;10.25;67.89;99909.67;1720946;83;21207;-81
2021/04/26 12:20:47;;;;;;;6.20;3.05;;;;;;;10.50;68.37;99896.65;1721060;83;21801;-84
2021/04/26 12:23:52;;;;;;;6.33;3.15;;;;;;;10.79;67.58;99890.36;1719008;83;21283;-83
2021/04/26 12:26:57;;;;;;;6.90;3.15;;;;;;;11.02;65.70;99888.06;1721261;81;21703;-84
2021/04/26 12:30:02;;;;;;;6.58;2.98;;;;;;;11.18;64.82;99879.11;1721697;83;21280;-82
2021/04/26 12:33:07;;;;;;;4.50;3.08;;;;;;;11.40;64.87;99878.66;1716191;83;21307;-82
2021/04/26 12:36:14;;;;;;;2.80;2.15;;;;;;;11.50;64.09;99878.34;1718891;83;21303;-84
2021/04/26 12:39:21;;;;;;;4.50;2.90;;;;;;;11.50;64.16;99888.78;1719432;83;21314;-84
2021/04/26 12:42:27;;;;;;;4.47;3.17;;;;;;;11.34;62.13;99882.17;1716079;81;21636;-82
2021/04/26 12:45:33;;;;;;;4.87;2.80;;;;;;;11.17;63.64;99876.05;1719497;83;21840;-81
2021/04/26 12:48:40;;;;;;;4.40;3.00;;;;;;;11.16;63.75;99874.88;1723773;81;21282;-84
2021/04/26 12:51:45;;;;;;;4.83;2.65;;;;;;;11.08;62.87;99866.23;1717089;83;21888;-81
2021/04/26 12:55:16;;;;;;;5.62;2.95;;;;;;;10.99;63.71;99858.64;1720668;81;21145;-84
2021/04/26 12:58:42;;;;;;;3.87;2.62;;;;;;;11.00;63.90;99853.49;1720479;83;22187;-81
2021/04/26 13:01:47;;;;;;;8.03;2.55;;;;;;;11.05;64.80;99853.45;1717528;83;21253;-81
2021/04/26 13:04:53;;;;;;;3.27;2.62;;;;;;;11.10;64.13;99857.30;1717799;83;21205;-81
2021/04/26 13:07:58;;;;;;;6.17;2.87;;;;;;;11.13;64.26;99855.56;1700604;81;21176;-84
2021/04/26 13:11:04;;;;;;;5.97;2.70;;;;;;;11.15;64.46;99852.13;1720413;83;21284;-81
2021/04/26 13:14:13;;;;;;;4.55;2.83;;;;;;;11.19;64.67;99843.00;1716598;83;21280;-82
2021/04/26 13:17:19;;;;;;;6.45;3.40;;;;;;;11.29;65.16;99853.12;1712327;84;21316;-81
2021/04/26 13:20:30;;;;;;;4.97;3.05;;;;;;;11.38;65.03;99847.86;1713247;83;21287;-82
2021/04/26 13:23:36;;;;;;;;;;;;;;;11.30;63.77;99857.58;1721882;82;22116;-81
2021/04/26 13:26:41;;;;;;;10.43;3.70;;;;;;;11.11;65.45;99856.81;1739051;82;20956;-84
2021/04/26 13:29:52;;;;;;;6.90;2.90;;;;;;;10.92;66.08;99855.51;1714175;83;21299;-81
2021/04/26 13:32:57;;;;;;;7.20;3.72;;;;;;;10.81;66.81;99862.28;1672709;84;21905;-83
2021/04/26 13:36:04;;;;;;;6.30;3.25;;;;;;;10.70;68.19;99864.98;1713060;84;21288;-81
2021/04/26 13:39:12;;;;;;;6.58;3.42;;;;;;;10.60;69.23;99864.93;1714050;84;21252;-81
2021/04/26 13:42:19;;;;;;;5.23;2.80;;;;;;;10.54;69.26;99866.53;1697726;83;21187;-81
2021/04/26 13:45:24;;;;;;;6.20;3.70;;;;;;;10.56;69.78;99860.87;1713645;84;21170;-81
2021/04/26 13:48:29;;;;;;;10.60;7.20;;;;;;;10.56;69.47;99878.64;1713874;84;21936;-81
2021/04/26 13:51:35;;;;;;;10.23;6.80;;;;;;;10.39;70.24;99882.05;1713420;84;21287;-84
2021/04/26 13:54:42;;;;;;;10.28;6.35;;;;;;;10.08;71.19;99893.06;1713185;84;21766;-81
2021/04/26 13:57:48;;;;;;;7.75;5.22;;;;;;;9.79;73.04;99893.28;1712991;84;21205;-81
2021/04/26 14:00:55;;;;;;;9.03;5.47;;;;;;;9.41;72.47;99878.16;1713188;83;21335;-84
2021/04/26 14:04:01;;;;;;;7.28;5.15;;;;;;;8.95;73.26;99910.77;1713395;84;21371;-81
2021/04/26 14:07:06;;;;;;;8.60;5.70;;;;;;;8.63;74.56;99907.61;1696694;84;21393;-84
2021/04/26 14:10:11;;;;;;;10.23;4.97;;;;;;;8.40;75.41;99914.80;1714162;84;21810;-82
2021/04/26 14:13:18;;;;;;;8.15;5.37;;;;;;;8.21;75.19;99913.25;1714062;84;21854;-82
2021/04/26 14:16:23;;;;;;;6.92;5.05;;;;;;;8.07;75.28;99912.56;1711383;84;21205;-83
2021/04/26 14:19:29;;;;;;;7.35;4.62;;;;;;;7.90;75.85;99920.74;1714124;84;21291;-81
2021/04/26 14:22:34;;;;;;;6.45;3.90;;;;;;;7.80;76.39;99911.85;1714130;84;21351;-84
2021/04/26 14:25:42;;;;;;;6.35;3.67;;;;;;;7.71;76.96;99926.98;1714122;83;21291;-84
2021/04/26 14:28:48;;;;;;;4.50;3.15;;;;;;;7.71;77.54;99919.66;1714083;84;21896;-81
2021/04/26 14:31:54;;;;;;;6.42;4.12;;;;;;;7.74;76.96;99923.94;1714064;83;21358;-83
2021/04/26 14:34:58;;;;;;;12.45;5.90;;;;;;;7.73;76.61;99937.21;1714200;84;21315;-84
2021/04/26 14:38:05;;;;;;;8.43;4.83;;;;;;;7.57;75.44;99939.37;1696301;84;21342;-82
2021/04/26 14:41:12;;;;;;;9.43;4.95;;;;;;;7.32;75.64;99943.38;1713746;84;21295;-84